createdAt,value
2018-05-03T00:00:14.001Z,62.22
2018-05-03T00:02:42.313Z,62.47
2018-05-03T00:05:10.789Z,62.25
2018-05-03T00:07:39.113Z,62.03
2018-05-03T00:10:07.435Z,62.00
2018-05-03T00:12:35.762Z,61.77
2018-05-03T00:15:04.097Z,62.21
2018-05-03T00:17:32.428Z,62.28
2018-05-03T00:20:00.736Z,62.31
2018-05-03T00:22:29.085Z,62.54
2018-05-03T00:24:57.405Z,62.62
2018-05-03T00:27:25.785Z,62.73
2018-05-03T00:29:54.203Z,62.73
2018-05-03T00:32:22.526Z,62.86
2018-05-03T00:34:50.837Z,63.07
2018-05-03T00:37:19.207Z,62.80
2018-05-03T00:39:47.608Z,62.73
2018-05-03T00:42:15.933Z,62.53
2018-05-03T00:44:44.237Z,62.80
2018-05-03T00:47:12.605Z,62.39
2018-05-03T00:49:40.924Z,62.38
2018-05-03T00:52:09.262Z,61.99
2018-05-03T00:54:49.345Z,62.64
2018-05-03T00:57:17.734Z,62.57
2018-05-03T00:59:46.111Z,62.56
2018-05-03T01:02:14.437Z,62.53
2018-05-03T01:04:42.755Z,62.40
2018-05-03T01:07:11.144Z,62.73
2018-05-03T01:09:39.451Z,62.23
2018-05-03T01:12:07.853Z,62.50
2018-05-03T01:14:36.198Z,62.87
2018-05-03T01:17:04.508Z,62.74
2018-05-03T01:19:32.896Z,62.81
2018-05-03T01:22:01.273Z,63.27
2018-05-03T01:24:29.644Z,63.54
2018-05-03T01:26:57.964Z,62.99
2018-05-03T01:29:26.399Z,62.92
2018-05-03T01:31:54.725Z,63.43
2018-05-03T01:34:23.060Z,63.42
2018-05-03T01:36:51.452Z,63.13
2018-05-03T01:39:19.788Z,63.47
2018-05-03T01:41:48.121Z,63.02
2018-05-03T01:44:16.453Z,63.55
2018-05-03T01:46:44.845Z,63.13
2018-05-03T01:49:13.236Z,63.29
2018-05-03T01:51:41.542Z,63.07
2018-05-03T01:54:09.840Z,63.15
2018-05-03T01:56:38.253Z,63.57
2018-05-03T01:59:06.683Z,63.65
2018-05-03T02:01:35.009Z,63.52
2018-05-03T02:04:03.406Z,63.91
2018-05-03T02:06:31.728Z,62.96
2018-05-03T02:09:00.047Z,63.34
2018-05-03T02:11:28.394Z,63.10
2018-05-03T02:13:56.800Z,63.20
2018-05-03T02:16:25.209Z,63.60
2018-05-03T02:18:53.571Z,63.58
2018-05-03T02:21:22.026Z,63.75
2018-05-03T02:23:50.341Z,63.33
2018-05-03T02:26:18.742Z,63.66
2018-05-03T02:28:47.109Z,63.42
2018-05-03T02:31:15.515Z,63.76
2018-05-03T02:33:43.837Z,63.69
2018-05-03T02:36:12.185Z,63.69
2018-05-03T02:38:40.634Z,64.00
2018-05-03T02:41:08.937Z,63.92
2018-05-03T02:43:37.265Z,63.68
2018-05-03T02:46:05.581Z,63.64
2018-05-03T02:48:33.999Z,63.58
2018-05-03T02:51:02.393Z,63.09
2018-05-03T02:53:30.764Z,63.56
2018-05-03T02:55:59.072Z,63.01
2018-05-03T02:58:39.296Z,63.15
2018-05-03T03:01:25.297Z,62.83
2018-05-03T03:04:11.027Z,62.85
2018-05-03T03:10:34.915Z,62.25
2018-05-03T03:16:53.451Z,61.65
2018-05-03T03:23:08.324Z,61.77
2018-05-03T03:29:32.911Z,61.51
2018-05-03T03:32:15.133Z,61.38
2018-05-03T03:34:43.529Z,61.97
2018-05-03T03:37:32.596Z,61.41
2018-05-03T03:40:18.305Z,61.51
2018-05-03T03:45:44.215Z,61.37
2018-05-03T03:48:12.589Z,61.43
2018-05-03T03:50:40.908Z,61.49
2018-05-03T03:53:09.272Z,61.19
2018-05-03T03:55:37.550Z,61.36
2018-05-03T03:58:05.885Z,61.23
2018-05-03T04:00:34.275Z,61.19
2018-05-03T04:03:02.580Z,61.59
2018-05-03T04:05:30.927Z,61.99
2018-05-03T04:07:59.309Z,61.51
2018-05-03T04:10:27.681Z,61.78
2018-05-03T04:12:55.992Z,61.67
2018-05-03T04:15:24.395Z,61.75
2018-05-03T04:18:04.808Z,61.68
2018-05-03T04:20:46.570Z,62.09
2018-05-03T04:23:37.272Z,62.16
2018-05-03T04:26:05.608Z,62.27
2018-05-03T04:28:33.982Z,61.68
2018-05-03T04:31:02.374Z,62.11
2018-05-03T04:33:30.683Z,61.90
2018-05-03T04:35:59.017Z,60.87
2018-05-03T04:38:27.382Z,61.42
2018-05-03T04:40:55.716Z,61.21
2018-05-03T04:43:24.019Z,60.97
2018-05-03T04:45:52.429Z,61.20
2018-05-03T04:48:20.777Z,61.63
2018-05-03T04:50:49.131Z,61.52
2018-05-03T04:53:17.528Z,60.91
2018-05-03T04:55:45.868Z,61.08
2018-05-03T04:58:14.228Z,61.16
2018-05-03T05:00:42.529Z,60.77
2018-05-03T05:03:10.939Z,61.13
2018-05-03T05:05:39.251Z,60.84
2018-05-03T05:08:07.660Z,60.39
2018-05-03T05:10:35.983Z,60.60
2018-05-03T05:13:04.307Z,60.26
2018-05-03T05:15:32.629Z,60.76
2018-05-03T05:18:01.084Z,60.44
2018-05-03T05:20:29.380Z,60.04
2018-05-03T05:22:57.719Z,60.21
2018-05-03T05:25:26.032Z,60.75
2018-05-03T05:27:54.380Z,59.75
2018-05-03T05:30:22.713Z,60.17
2018-05-03T05:32:51.048Z,59.92
2018-05-03T05:35:19.460Z,60.24
2018-05-03T05:37:48.508Z,59.58
2018-05-03T05:40:16.836Z,59.07
2018-05-03T05:42:45.256Z,58.88
2018-05-03T05:45:13.554Z,58.81
2018-05-03T05:47:41.855Z,58.90
2018-05-03T05:50:10.192Z,58.47
2018-05-03T05:52:38.492Z,58.68
2018-05-03T05:55:06.835Z,58.06
2018-05-03T05:57:35.207Z,58.53
2018-05-03T06:00:03.557Z,58.70
2018-05-03T06:02:31.873Z,58.37
2018-05-03T06:05:00.217Z,57.49
2018-05-03T06:07:28.584Z,57.92
2018-05-03T06:09:56.963Z,57.97
2018-05-03T06:12:25.289Z,57.88
2018-05-03T06:14:53.713Z,57.71
2018-05-03T06:17:22.023Z,57.66
2018-05-03T06:19:50.478Z,57.74
2018-05-03T06:22:18.853Z,57.23
2018-05-03T06:24:47.184Z,57.49
2018-05-03T06:27:15.490Z,57.77
2018-05-03T06:29:43.890Z,57.60
2018-05-03T06:32:12.194Z,57.74
2018-05-03T06:34:40.534Z,57.62
2018-05-03T06:37:08.956Z,57.19
2018-05-03T06:39:37.385Z,57.67
2018-05-03T06:42:05.697Z,57.99
2018-05-03T06:44:34.013Z,56.94
2018-05-03T06:47:02.422Z,55.85
2018-05-03T06:49:30.728Z,56.76
2018-05-03T06:51:59.056Z,56.58
2018-05-03T06:54:27.368Z,56.49
2018-05-03T06:56:55.725Z,55.47
2018-05-03T06:59:24.046Z,55.27
2018-05-03T07:01:52.384Z,56.09
2018-05-03T07:04:20.871Z,54.93
2018-05-03T07:06:49.112Z,54.74
2018-05-03T07:09:17.413Z,55.51
2018-05-03T07:11:45.749Z,54.50
2018-05-03T07:14:14.062Z,54.10
2018-05-03T07:16:42.493Z,53.70
2018-05-03T07:19:10.797Z,53.18
2018-05-03T07:21:39.207Z,53.12
2018-05-03T07:24:07.546Z,53.21
2018-05-03T07:26:35.894Z,53.23
2018-05-03T07:29:04.205Z,53.40
2018-05-03T07:31:32.573Z,52.64
2018-05-03T07:34:00.881Z,51.20
2018-05-03T07:36:29.324Z,51.08
2018-05-03T07:38:57.656Z,50.38
2018-05-03T07:41:25.988Z,50.69
2018-05-03T07:43:54.402Z,50.10
2018-05-03T07:46:22.794Z,50.37
2018-05-03T07:48:51.102Z,50.65
2018-05-03T07:51:19.463Z,50.04
2018-05-03T07:53:47.832Z,49.39
2018-05-03T07:56:16.194Z,50.51
2018-05-03T07:58:44.590Z,51.98
2018-05-03T08:01:12.895Z,50.83
2018-05-03T08:03:41.223Z,51.35
2018-05-03T08:06:09.608Z,50.62
2018-05-03T08:08:37.939Z,50.91
2018-05-03T08:11:06.251Z,51.30
2018-05-03T08:13:34.585Z,49.92
2018-05-03T08:16:02.897Z,50.36
2018-05-03T08:18:31.221Z,48.50
2018-05-03T08:20:59.573Z,48.41
2018-05-03T08:23:27.993Z,49.28
2018-05-03T08:25:56.284Z,48.42
2018-05-03T08:28:24.633Z,47.64
2018-05-03T08:30:52.948Z,48.15
2018-05-03T08:33:21.293Z,47.70
2018-05-03T08:35:49.606Z,47.66
2018-05-03T08:38:17.936Z,46.68
2018-05-03T08:40:46.250Z,46.89
2018-05-03T08:43:14.560Z,46.63
2018-05-03T08:45:42.974Z,47.17
2018-05-03T08:48:11.291Z,47.00
2018-05-03T08:50:39.621Z,47.05
2018-05-03T08:53:07.942Z,46.52
2018-05-03T08:55:36.381Z,46.42
2018-05-03T08:58:04.679Z,46.36
2018-05-03T09:00:33.113Z,46.51
2018-05-03T09:03:01.427Z,45.37
2018-05-03T09:05:29.764Z,47.26
2018-05-03T09:07:58.148Z,46.82
2018-05-03T09:10:26.524Z,46.20
2018-05-03T09:12:54.838Z,45.67
2018-05-03T09:15:23.180Z,44.18
2018-05-03T09:17:51.492Z,43.30
2018-05-03T09:20:19.838Z,44.77
2018-05-03T09:22:48.150Z,46.34
2018-05-03T09:25:16.485Z,45.74
2018-05-03T09:27:44.852Z,45.54
2018-05-03T09:30:13.189Z,45.63
2018-05-03T09:32:41.517Z,44.64
2018-05-03T09:35:09.856Z,44.57
2018-05-03T09:37:38.181Z,45.90
2018-05-03T09:40:06.497Z,45.68
2018-05-03T09:42:35.739Z,45.18
2018-05-03T09:45:04.052Z,45.21
2018-05-03T09:47:32.386Z,46.30
2018-05-03T09:50:00.782Z,45.73
2018-05-03T09:52:29.123Z,45.44
2018-05-03T09:54:57.437Z,45.12
2018-05-03T09:57:25.822Z,44.87
2018-05-03T09:59:54.133Z,44.31
2018-05-03T10:02:22.566Z,44.46
2018-05-03T10:04:50.919Z,44.84
2018-05-03T10:07:19.221Z,43.13
2018-05-03T10:09:47.541Z,43.67
2018-05-03T10:12:15.975Z,43.67
2018-05-03T10:14:44.285Z,42.96
2018-05-03T10:17:12.629Z,42.33
2018-05-03T10:19:40.993Z,42.32
2018-05-03T10:22:09.333Z,42.24
2018-05-03T10:24:37.627Z,42.53
2018-05-03T10:27:05.978Z,43.46
2018-05-03T10:29:34.279Z,43.51
2018-05-03T10:32:02.589Z,43.53
2018-05-03T10:34:30.998Z,42.71
2018-05-03T10:36:59.298Z,43.29
2018-05-03T10:39:27.748Z,42.40
2018-05-03T10:41:56.129Z,43.30
2018-05-03T10:44:24.396Z,43.12
2018-05-03T10:46:52.722Z,43.29
2018-05-03T10:49:21.150Z,43.20
2018-05-03T10:51:49.461Z,42.83
2018-05-03T10:54:17.793Z,43.66
2018-05-03T10:56:46.112Z,44.53
2018-05-03T10:59:14.460Z,44.48
2018-05-03T11:01:42.769Z,42.33
2018-05-03T11:04:11.117Z,41.36
2018-05-03T11:06:39.435Z,42.38
2018-05-03T11:09:07.865Z,41.32
2018-05-03T11:11:36.250Z,40.78
2018-05-03T11:14:04.630Z,40.91
2018-05-03T11:16:32.953Z,41.93
2018-05-03T11:19:01.277Z,40.95
2018-05-03T11:21:29.627Z,40.82
2018-05-03T11:23:57.948Z,40.56
2018-05-03T11:26:26.353Z,40.95
2018-05-03T11:28:54.646Z,40.68
2018-05-03T11:31:23.133Z,40.23
2018-05-03T11:33:51.452Z,40.43
2018-05-03T11:36:19.827Z,40.53
2018-05-03T11:38:48.154Z,40.56
2018-05-03T11:41:16.476Z,40.42
2018-05-03T11:43:45.000Z,41.24
2018-05-03T11:46:14.253Z,40.51
2018-05-03T11:48:42.652Z,41.97
2018-05-03T11:51:11.013Z,42.15
2018-05-03T11:53:39.402Z,42.65
2018-05-03T11:56:07.701Z,41.91
2018-05-03T11:58:36.009Z,42.28
2018-05-03T12:01:04.371Z,42.92
2018-05-03T12:03:32.671Z,42.06
2018-05-03T12:06:01.059Z,41.67
2018-05-03T12:08:29.320Z,42.42
2018-05-03T12:10:57.631Z,42.50
2018-05-03T12:13:25.960Z,42.96
2018-05-03T12:15:54.436Z,42.31
2018-05-03T12:18:22.740Z,43.23
2018-05-03T12:20:51.090Z,42.82
2018-05-03T12:23:19.411Z,43.24
2018-05-03T12:25:47.729Z,42.96
2018-05-03T12:28:16.123Z,43.99
2018-05-03T12:30:44.435Z,43.64
2018-05-03T12:33:12.741Z,42.96
2018-05-03T12:35:41.131Z,42.93
2018-05-03T12:38:09.457Z,42.80
2018-05-03T12:40:37.771Z,41.62
2018-05-03T12:43:06.150Z,42.07
2018-05-03T12:45:34.521Z,41.85
2018-05-03T12:48:02.900Z,41.29
2018-05-03T12:50:31.248Z,43.15
2018-05-03T12:52:59.574Z,42.92
2018-05-03T12:55:27.934Z,42.69
2018-05-03T12:57:56.239Z,42.22
2018-05-03T13:00:24.591Z,42.19
2018-05-03T13:02:52.965Z,42.81
2018-05-03T13:05:21.282Z,42.33
2018-05-03T13:07:49.604Z,43.76
2018-05-03T13:10:17.925Z,44.02
2018-05-03T13:12:46.268Z,43.14
2018-05-03T13:15:14.589Z,43.43
2018-05-03T13:17:42.889Z,44.16
2018-05-03T13:20:11.268Z,44.62
2018-05-03T13:22:39.512Z,44.71
2018-05-03T13:25:07.853Z,44.86
2018-05-03T13:27:36.228Z,44.33
2018-05-03T13:30:04.560Z,44.79
2018-05-03T13:32:32.889Z,45.22
2018-05-03T13:35:01.196Z,44.96
2018-05-03T13:37:30.440Z,45.94
2018-05-03T13:39:58.770Z,46.49
2018-05-03T13:42:27.999Z,46.71
2018-05-03T13:44:56.311Z,45.63
2018-05-03T13:47:24.670Z,44.51
2018-05-03T13:49:52.966Z,44.01
2018-05-03T13:52:21.354Z,43.22
2018-05-03T13:54:49.666Z,39.91
2018-05-03T13:57:17.970Z,37.75
2018-05-03T13:59:46.303Z,38.14
2018-05-03T14:02:14.660Z,40.00
2018-05-03T14:04:43.045Z,41.34
2018-05-03T14:07:11.535Z,41.52
2018-05-03T14:09:39.689Z,42.06
2018-05-03T14:12:08.008Z,43.13
2018-05-03T14:14:36.387Z,41.32
2018-05-03T14:17:04.682Z,41.73
2018-05-03T14:19:32.996Z,41.21
2018-05-03T14:22:01.381Z,38.54
2018-05-03T14:24:29.694Z,35.71
2018-05-03T14:26:58.028Z,34.15
2018-05-03T14:29:26.361Z,34.03
2018-05-03T14:31:54.666Z,33.46
2018-05-03T14:34:23.058Z,32.92
2018-05-03T14:36:51.453Z,32.96
2018-05-03T14:39:19.753Z,32.37
2018-05-03T14:41:48.068Z,32.06
2018-05-03T14:44:16.405Z,32.16
2018-05-03T14:46:44.721Z,32.73
2018-05-03T14:49:13.142Z,32.96
2018-05-03T14:51:41.468Z,33.90
2018-05-03T14:54:09.829Z,34.82
2018-05-03T14:56:38.138Z,35.54
2018-05-03T14:59:06.583Z,37.18
2018-05-03T15:01:34.889Z,40.45
2018-05-03T15:04:03.237Z,43.73
2018-05-03T15:06:31.612Z,45.04
2018-05-03T15:08:59.865Z,46.14
2018-05-03T15:11:28.220Z,46.58
2018-05-03T15:13:56.608Z,47.55
2018-05-03T15:16:24.943Z,48.33
2018-05-03T15:18:53.226Z,48.41
2018-05-03T15:21:21.640Z,49.18
2018-05-03T15:23:49.963Z,50.39
2018-05-03T15:26:18.335Z,50.70
2018-05-03T15:28:46.642Z,51.13
2018-05-03T15:31:14.962Z,50.77
2018-05-03T15:33:43.341Z,51.08
2018-05-03T15:36:11.597Z,51.61
2018-05-03T15:38:39.908Z,51.76
2018-05-03T15:41:08.276Z,52.17
2018-05-03T15:43:36.638Z,52.69
2018-05-03T15:46:04.982Z,53.07
2018-05-03T15:48:33.365Z,53.96
2018-05-03T15:51:01.698Z,54.03
2018-05-03T15:53:30.012Z,54.41
2018-05-03T15:55:58.426Z,54.74
2018-05-03T15:58:26.845Z,54.88
2018-05-03T16:00:55.181Z,54.84
2018-05-03T16:03:23.513Z,54.36
2018-05-03T16:05:51.943Z,54.68
2018-05-03T16:08:20.260Z,54.53
2018-05-03T16:10:48.593Z,53.98
2018-05-03T16:13:16.925Z,53.86
2018-05-03T16:15:45.261Z,53.95
2018-05-03T16:18:13.577Z,54.00
2018-05-03T16:20:42.047Z,53.78
2018-05-03T16:23:10.421Z,53.93
2018-05-03T16:25:38.742Z,54.66
2018-05-03T16:28:07.280Z,54.30
2018-05-03T16:30:35.587Z,54.81
2018-05-03T16:33:03.904Z,54.72
2018-05-03T16:35:32.416Z,54.86
2018-05-03T16:38:00.753Z,55.09
2018-05-03T16:40:29.173Z,55.15
2018-05-03T16:42:57.509Z,55.32
2018-05-03T16:45:25.838Z,54.88
2018-05-03T16:47:54.155Z,54.80
2018-05-03T16:50:22.583Z,55.31
2018-05-03T16:52:50.880Z,54.81
2018-05-03T16:55:19.292Z,55.21
2018-05-03T16:57:48.203Z,55.22
2018-05-03T17:00:16.521Z,55.20
2018-05-03T17:02:44.842Z,55.27
2018-05-03T17:05:13.176Z,56.06
2018-05-03T17:07:41.494Z,56.37
2018-05-03T17:10:09.810Z,56.18
2018-05-03T17:12:38.150Z,56.25
2018-05-03T17:15:06.466Z,55.86
2018-05-03T17:17:34.789Z,56.29
2018-05-03T17:20:03.201Z,55.95
2018-05-03T17:22:31.561Z,56.26
2018-05-03T17:24:59.885Z,56.11
2018-05-03T17:27:28.217Z,56.31
2018-05-03T17:29:56.537Z,56.91
2018-05-03T17:32:24.851Z,56.01
2018-05-03T17:34:53.171Z,56.04
2018-05-03T17:37:21.529Z,55.93
2018-05-03T17:39:49.848Z,55.69
2018-05-03T17:42:18.179Z,55.38
2018-05-03T17:44:46.556Z,55.75
2018-05-03T17:47:14.934Z,55.58
2018-05-03T17:49:43.262Z,55.44
2018-05-03T17:52:11.598Z,55.78
2018-05-03T17:54:39.945Z,55.75
2018-05-03T17:57:08.365Z,55.73
2018-05-03T17:59:36.689Z,55.62
2018-05-03T18:02:05.005Z,56.15
2018-05-03T18:04:33.434Z,56.26
2018-05-03T18:07:01.803Z,56.42
2018-05-03T18:09:30.105Z,56.46
2018-05-03T18:11:58.437Z,56.68
2018-05-03T18:14:26.767Z,56.38
2018-05-03T18:16:55.085Z,56.99
2018-05-03T18:19:23.413Z,57.11
2018-05-03T18:21:51.722Z,57.27
2018-05-03T18:24:20.033Z,57.28
2018-05-03T18:26:48.368Z,57.54
2018-05-03T18:29:16.690Z,57.76
2018-05-03T18:31:45.024Z,57.80
2018-05-03T18:34:13.369Z,57.85
2018-05-03T18:36:41.678Z,58.12
2018-05-03T18:39:09.997Z,58.18
2018-05-03T18:41:38.386Z,58.31
2018-05-03T18:44:06.747Z,57.92
2018-05-03T18:46:35.015Z,57.98
2018-05-03T18:49:03.276Z,57.86
2018-05-03T18:51:31.597Z,58.09
2018-05-03T18:53:59.921Z,57.96
2018-05-03T18:56:28.408Z,58.51
2018-05-03T18:58:56.708Z,58.13
2018-05-03T19:01:25.062Z,58.73
2018-05-03T19:03:53.416Z,57.75
2018-05-03T19:06:21.816Z,58.14
2018-05-03T19:08:50.298Z,58.46
2018-05-03T19:11:18.616Z,58.17
2018-05-03T19:13:46.925Z,58.05
2018-05-03T19:16:15.337Z,58.31
2018-05-03T19:18:43.713Z,58.32
2018-05-03T19:21:12.083Z,58.25
2018-05-03T19:23:40.414Z,58.25
2018-05-03T19:26:08.718Z,58.29
2018-05-03T19:28:37.113Z,58.26
2018-05-03T19:31:05.501Z,58.26
2018-05-03T19:33:33.821Z,58.34
2018-05-03T19:36:02.152Z,58.11
2018-05-03T19:38:30.525Z,57.67
2018-05-03T19:40:58.882Z,57.76
2018-05-03T19:43:27.267Z,57.73
2018-05-03T19:45:55.569Z,58.09
2018-05-03T19:48:23.939Z,58.04
2018-05-03T19:50:52.321Z,57.84
2018-05-03T19:53:20.633Z,57.95
2018-05-03T19:55:49.018Z,58.32
2018-05-03T19:58:17.322Z,58.17
2018-05-03T20:00:45.626Z,58.05
2018-05-03T20:03:13.957Z,58.37
2018-05-03T20:05:42.277Z,58.27
2018-05-03T20:08:10.663Z,58.34
2018-05-03T20:10:38.985Z,58.43
2018-05-03T20:13:07.287Z,58.46
2018-05-03T20:15:35.701Z,58.67
2018-05-03T20:18:04.045Z,58.74
2018-05-03T20:20:32.449Z,59.48
2018-05-03T20:23:00.766Z,59.36
2018-05-03T20:25:29.085Z,59.41
2018-05-03T20:27:57.428Z,59.70
2018-05-03T20:30:25.757Z,59.56
2018-05-03T20:32:54.270Z,59.87
2018-05-03T20:35:22.452Z,59.74
2018-05-03T20:37:50.794Z,59.83
2018-05-03T20:40:19.172Z,60.10
2018-05-03T20:42:47.558Z,60.17
2018-05-03T20:45:15.863Z,59.95
2018-05-03T20:47:44.201Z,60.06
2018-05-03T20:50:12.527Z,60.60
2018-05-03T20:52:40.833Z,60.87
2018-05-03T20:55:09.148Z,60.76
2018-05-03T20:57:37.516Z,60.60
2018-05-03T21:00:05.800Z,60.68
2018-05-03T21:02:34.124Z,60.96
2018-05-03T21:05:02.464Z,61.18
2018-05-03T21:07:30.782Z,61.36
2018-05-03T21:09:59.192Z,61.15
2018-05-03T21:12:27.515Z,61.10
2018-05-03T21:14:55.858Z,61.31
2018-05-03T21:17:24.173Z,61.58
2018-05-03T21:19:52.535Z,61.26
2018-05-03T21:22:20.849Z,61.58
2018-05-03T21:24:49.190Z,61.90
2018-05-03T21:27:17.503Z,62.01
2018-05-03T21:29:45.818Z,61.90
2018-05-03T21:32:14.266Z,61.79
2018-05-03T21:34:42.604Z,62.02
2018-05-03T21:37:10.938Z,62.15
2018-05-03T21:39:39.343Z,62.14
2018-05-03T21:42:07.657Z,62.29
2018-05-03T21:44:35.997Z,62.40
2018-05-03T21:47:04.330Z,62.51
2018-05-03T21:49:32.734Z,62.76
2018-05-03T21:52:01.138Z,63.15
2018-05-03T21:54:29.457Z,64.04
2018-05-03T21:56:57.773Z,65.33
2018-05-03T21:59:26.089Z,65.82
2018-05-03T22:01:54.431Z,66.75
2018-05-03T22:04:22.729Z,67.44
2018-05-03T22:06:51.080Z,67.59
2018-05-03T22:09:19.469Z,68.49
2018-05-03T22:11:47.837Z,67.92
2018-05-03T22:14:16.217Z,68.10
2018-05-03T22:16:44.529Z,68.14
2018-05-03T22:19:12.865Z,67.50
2018-05-03T22:21:41.181Z,68.17
2018-05-03T22:24:09.516Z,68.27
2018-05-03T22:26:37.824Z,68.30
2018-05-03T22:29:06.137Z,68.33
2018-05-03T22:31:34.456Z,68.73
2018-05-03T22:34:02.772Z,69.54
2018-05-03T22:36:31.109Z,68.45
2018-05-03T22:38:59.490Z,68.75
2018-05-03T22:43:58.017Z,67.46
2018-05-03T22:46:26.337Z,68.54
2018-05-03T22:48:54.665Z,67.85
2018-05-03T22:51:22.967Z,67.80
2018-05-03T22:53:51.390Z,67.65
2018-05-03T22:56:19.772Z,67.17
2018-05-03T22:58:48.153Z,67.41
2018-05-03T23:01:16.546Z,66.86
2018-05-03T23:03:44.853Z,66.25
2018-05-03T23:06:13.175Z,65.52
2018-05-03T23:08:41.552Z,65.81
2018-05-03T23:11:09.860Z,65.76
2018-05-03T23:13:38.168Z,65.70
2018-05-03T23:16:06.534Z,66.15
2018-05-03T23:18:34.858Z,65.86
2018-05-03T23:21:03.166Z,65.61
2018-05-03T23:23:31.506Z,65.23
2018-05-03T23:25:59.819Z,65.23
2018-05-03T23:28:28.173Z,64.91
2018-05-03T23:30:56.568Z,64.84
2018-05-03T23:33:24.893Z,64.49
2018-05-03T23:35:53.223Z,64.62
2018-05-03T23:38:21.575Z,64.92
2018-05-03T23:40:49.892Z,64.89
2018-05-03T23:43:18.260Z,64.88
2018-05-03T23:45:46.592Z,64.54
2018-05-03T23:48:14.905Z,64.99
2018-05-03T23:50:43.224Z,64.75
2018-05-03T23:53:11.555Z,64.71
2018-05-03T23:55:39.934Z,64.28
2018-05-03T23:58:08.246Z,64.21
